Leaf River, Illinois
Current Conditions -  °F | °C
As of 8:55 PM on Friday 19 Dec 2014 (Local Time) from KFEP Reporting Station
Overcast Overcast  
Wind Chill: 26°   Ceiling: 3500
Heat Index: 26°   Visibility: 10mi
Dew Point: 23°   Wind: 3mph
Humidity: 89%   Direction: 130°SE
Pressure: 30.28"   Gusts: NA
Location:  42.13°N, 89.4°W
Report Text: KFEP 200255Z AUTO 13003KT 10SM SCT014 OVC035 M03/M05 A3028 RMK AO2 T10351050
Loading
Personal Weather Stations






























Interactive Weather Map New forecast layout! Learn more

10-Day Weather Forecast

Advertisements
Track Severe Weather on mobile